sensor_id;sensor_type;location;lat;lon;timestamp;temperature;humidity
44982;DHT22;30716;41.740;-70.400;2022-08-19T00:01:56;24.00;52.70
44982;DHT22;30716;41.740;-70.400;2022-08-19T00:04:25;24.00;52.60
44982;DHT22;30716;41.740;-70.400;2022-08-19T00:06:52;24.00;52.60
44982;DHT22;30716;41.740;-70.400;2022-08-19T00:09:20;24.00;52.50
44982;DHT22;30716;41.740;-70.400;2022-08-19T00:11:47;24.00;52.50
44982;DHT22;30716;41.740;-70.400;2022-08-19T00:14:15;24.00;52.60
44982;DHT22;30716;41.740;-70.400;2022-08-19T00:16:44;24.00;52.50
44982;DHT22;30716;41.740;-70.400;2022-08-19T00:19:11;24.00;52.50
44982;DHT22;30716;41.740;-70.400;2022-08-19T00:21:37;24.00;52.50
44982;DHT22;30716;41.740;-70.400;2022-08-19T00:24:07;24.00;52.50
44982;DHT22;30716;41.740;-70.400;2022-08-19T00:26:34;24.00;52.50
44982;DHT22;30716;41.740;-70.400;2022-08-19T00:29:00;24.00;52.50
44982;DHT22;30716;41.740;-70.400;2022-08-19T00:31:27;24.00;52.50
44982;DHT22;30716;41.740;-70.400;2022-08-19T00:33:54;24.00;52.50
44982;DHT22;30716;41.740;-70.400;2022-08-19T00:36:20;24.00;52.60
44982;DHT22;30716;41.740;-70.400;2022-08-19T00:38:46;24.00;52.50
44982;DHT22;30716;41.740;-70.400;2022-08-19T00:41:14;24.00;52.50
44982;DHT22;30716;41.740;-70.400;2022-08-19T00:43:41;24.00;52.50
44982;DHT22;30716;41.740;-70.400;2022-08-19T00:46:08;24.10;52.60
44982;DHT22;30716;41.740;-70.400;2022-08-19T00:48:34;24.10;52.70
44982;DHT22;30716;41.740;-70.400;2022-08-19T00:51:02;24.10;52.60
44982;DHT22;30716;41.740;-70.400;2022-08-19T00:53:31;24.10;52.60
44982;DHT22;30716;41.740;-70.400;2022-08-19T00:56:01;24.10;52.60
44982;DHT22;30716;41.740;-70.400;2022-08-19T00:58:31;24.10;52.70
44982;DHT22;30716;41.740;-70.400;2022-08-19T01:00:59;24.10;52.90
44982;DHT22;30716;41.740;-70.400;2022-08-19T01:03:26;24.10;52.80
44982;DHT22;30716;41.740;-70.400;2022-08-19T01:05:53;24.10;52.70
44982;DHT22;30716;41.740;-70.400;2022-08-19T01:08:20;24.00;52.50
44982;DHT22;30716;41.740;-70.400;2022-08-19T01:10:54;24.10;52.80
44982;DHT22;30716;41.740;-70.400;2022-08-19T01:13:23;24.10;52.70
44982;DHT22;30716;41.740;-70.400;2022-08-19T01:15:57;24.00;52.70
44982;DHT22;30716;41.740;-70.400;2022-08-19T01:18:25;24.00;52.60
44982;DHT22;30716;41.740;-70.400;2022-08-19T01:20:55;24.10;52.80
44982;DHT22;30716;41.740;-70.400;2022-08-19T01:23:22;24.00;52.70
44982;DHT22;30716;41.740;-70.400;2022-08-19T01:26:11;24.10;52.80
44982;DHT22;30716;41.740;-70.400;2022-08-19T01:28:38;24.10;52.80
44982;DHT22;30716;41.740;-70.400;2022-08-19T01:31:05;24.10;52.70
44982;DHT22;30716;41.740;-70.400;2022-08-19T01:33:31;24.10;52.80
44982;DHT22;30716;41.740;-70.400;2022-08-19T01:36:07;24.10;52.70
44982;DHT22;30716;41.740;-70.400;2022-08-19T01:38:37;24.10;52.70
44982;DHT22;30716;41.740;-70.400;2022-08-19T01:41:04;24.10;52.70
44982;DHT22;30716;41.740;-70.400;2022-08-19T01:43:32;24.10;52.70
44982;DHT22;30716;41.740;-70.400;2022-08-19T01:45:59;24.10;52.80
44982;DHT22;30716;41.740;-70.400;2022-08-19T01:48:26;24.10;52.70
44982;DHT22;30716;41.740;-70.400;2022-08-19T01:50:55;24.10;52.80
44982;DHT22;30716;41.740;-70.400;2022-08-19T01:53:21;24.20;52.80
44982;DHT22;30716;41.740;-70.400;2022-08-19T01:55:47;24.20;53.00
44982;DHT22;30716;41.740;-70.400;2022-08-19T01:58:18;24.20;53.00
44982;DHT22;30716;41.740;-70.400;2022-08-19T02:00:46;24.20;53.00
44982;DHT22;30716;41.740;-70.400;2022-08-19T02:03:12;24.10;53.00
44982;DHT22;30716;41.740;-70.400;2022-08-19T02:05:39;24.20;53.20
44982;DHT22;30716;41.740;-70.400;2022-08-19T02:08:07;24.10;53.00
44982;DHT22;30716;41.740;-70.400;2022-08-19T02:10:33;24.10;52.80
44982;DHT22;30716;41.740;-70.400;2022-08-19T02:12:59;24.10;52.90
44982;DHT22;30716;41.740;-70.400;2022-08-19T02:15:25;24.20;53.00
44982;DHT22;30716;41.740;-70.400;2022-08-19T02:17:52;24.10;52.90
44982;DHT22;30716;41.740;-70.400;2022-08-19T02:20:18;24.10;52.80
44982;DHT22;30716;41.740;-70.400;2022-08-19T02:22:44;24.10;52.90
44982;DHT22;30716;41.740;-70.400;2022-08-19T02:25:14;24.10;52.90
44982;DHT22;30716;41.740;-70.400;2022-08-19T02:27:41;24.10;52.90
44982;DHT22;30716;41.740;-70.400;2022-08-19T02:30:11;24.10;52.90
44982;DHT22;30716;41.740;-70.400;2022-08-19T02:32:37;24.20;53.00
44982;DHT22;30716;41.740;-70.400;2022-08-19T02:35:04;24.20;52.90
44982;DHT22;30716;41.740;-70.400;2022-08-19T02:37:30;24.20;53.00
44982;DHT22;30716;41.740;-70.400;2022-08-19T02:40:15;24.20;53.00
44982;DHT22;30716;41.740;-70.400;2022-08-19T02:42:44;24.20;53.00
44982;DHT22;30716;41.740;-70.400;2022-08-19T02:45:12;24.10;53.00
44982;DHT22;30716;41.740;-70.400;2022-08-19T02:47:40;24.20;53.00
44982;DHT22;30716;41.740;-70.400;2022-08-19T02:50:07;24.20;53.00
44982;DHT22;30716;41.740;-70.400;2022-08-19T02:52:34;24.20;53.10
44982;DHT22;30716;41.740;-70.400;2022-08-19T02:55:00;24.20;53.10
44982;DHT22;30716;41.740;-70.400;2022-08-19T02:57:27;24.20;53.40
44982;DHT22;30716;41.740;-70.400;2022-08-19T02:59:53;24.20;53.20
44982;DHT22;30716;41.740;-70.400;2022-08-19T03:02:19;24.20;54.00
44982;DHT22;30716;41.740;-70.400;2022-08-19T03:04:46;24.20;53.20
44982;DHT22;30716;41.740;-70.400;2022-08-19T03:07:16;24.20;53.10
44982;DHT22;30716;41.740;-70.400;2022-08-19T03:09:44;24.30;53.30
44982;DHT22;30716;41.740;-70.400;2022-08-19T03:12:10;24.30;53.30
44982;DHT22;30716;41.740;-70.400;2022-08-19T03:14:37;24.20;53.10
44982;DHT22;30716;41.740;-70.400;2022-08-19T03:17:04;24.20;53.00
44982;DHT22;30716;41.740;-70.400;2022-08-19T03:19:30;24.20;53.20
44982;DHT22;30716;41.740;-70.400;2022-08-19T03:21:57;24.20;53.20
44982;DHT22;30716;41.740;-70.400;2022-08-19T03:24:24;24.20;53.20
44982;DHT22;30716;41.740;-70.400;2022-08-19T03:26:54;24.20;53.00
44982;DHT22;30716;41.740;-70.400;2022-08-19T03:29:26;24.20;53.10
44982;DHT22;30716;41.740;-70.400;2022-08-19T03:31:52;24.20;53.10
44982;DHT22;30716;41.740;-70.400;2022-08-19T03:34:25;24.20;53.20
44982;DHT22;30716;41.740;-70.400;2022-08-19T03:36:53;24.20;53.20
44982;DHT22;30716;41.740;-70.400;2022-08-19T03:39:20;24.20;53.20
44982;DHT22;30716;41.740;-70.400;2022-08-19T03:41:48;24.20;53.20
44982;DHT22;30716;41.740;-70.400;2022-08-19T03:44:20;24.30;53.20
44982;DHT22;30716;41.740;-70.400;2022-08-19T03:46:49;24.20;53.20
44982;DHT22;30716;41.740;-70.400;2022-08-19T03:49:17;24.20;53.20
44982;DHT22;30716;41.740;-70.400;2022-08-19T03:51:44;24.20;53.10
44982;DHT22;30716;41.740;-70.400;2022-08-19T03:54:12;24.20;53.00
44982;DHT22;30716;41.740;-70.400;2022-08-19T03:56:41;24.20;53.00
44982;DHT22;30716;41.740;-70.400;2022-08-19T03:59:12;24.20;53.00
44982;DHT22;30716;41.740;-70.400;2022-08-19T04:01:39;24.20;53.00
44982;DHT22;30716;41.740;-70.400;2022-08-19T04:04:05;24.20;53.10
44982;DHT22;30716;41.740;-70.400;2022-08-19T04:06:33;24.20;53.20
44982;DHT22;30716;41.740;-70.400;2022-08-19T04:09:02;24.20;53.30
44982;DHT22;30716;41.740;-70.400;2022-08-19T04:11:33;24.20;53.50
44982;DHT22;30716;41.740;-70.400;2022-08-19T04:13:59;24.20;53.50
44982;DHT22;30716;41.740;-70.400;2022-08-19T04:16:27;24.20;53.40
44982;DHT22;30716;41.740;-70.400;2022-08-19T04:18:59;24.20;53.50
44982;DHT22;30716;41.740;-70.400;2022-08-19T04:21:27;24.20;53.40
44982;DHT22;30716;41.740;-70.400;2022-08-19T04:23:55;24.20;53.40
44982;DHT22;30716;41.740;-70.400;2022-08-19T04:26:24;24.20;53.70
44982;DHT22;30716;41.740;-70.400;2022-08-19T04:28:51;24.20;53.50
44982;DHT22;30716;41.740;-70.400;2022-08-19T04:31:19;24.20;53.50
44982;DHT22;30716;41.740;-70.400;2022-08-19T04:33:46;24.20;53.00
44982;DHT22;30716;41.740;-70.400;2022-08-19T04:36:19;24.20;53.70
44982;DHT22;30716;41.740;-70.400;2022-08-19T04:38:47;24.20;52.90
44982;DHT22;30716;41.740;-70.400;2022-08-19T04:41:13;24.20;53.10
44982;DHT22;30716;41.740;-70.400;2022-08-19T04:43:58;24.10;53.00
44982;DHT22;30716;41.740;-70.400;2022-08-19T04:46:24;24.10;53.00
44982;DHT22;30716;41.740;-70.400;2022-08-19T04:48:50;24.10;53.20
44982;DHT22;30716;41.740;-70.400;2022-08-19T04:51:16;24.10;53.40
44982;DHT22;30716;41.740;-70.400;2022-08-19T04:53:42;24.10;53.60
44982;DHT22;30716;41.740;-70.400;2022-08-19T04:56:11;24.10;53.50
44982;DHT22;30716;41.740;-70.400;2022-08-19T04:58:39;24.10;53.60
44982;DHT22;30716;41.740;-70.400;2022-08-19T05:01:09;24.10;53.70
44982;DHT22;30716;41.740;-70.400;2022-08-19T05:03:36;24.10;53.70
44982;DHT22;30716;41.740;-70.400;2022-08-19T05:06:09;24.10;53.80
44982;DHT22;30716;41.740;-70.400;2022-08-19T05:08:36;24.10;53.90
44982;DHT22;30716;41.740;-70.400;2022-08-19T05:11:18;24.10;53.80
44982;DHT22;30716;41.740;-70.400;2022-08-19T05:13:47;24.10;53.90
44982;DHT22;30716;41.740;-70.400;2022-08-19T05:16:16;24.10;53.90
44982;DHT22;30716;41.740;-70.400;2022-08-19T05:18:43;24.10;53.80
44982;DHT22;30716;41.740;-70.400;2022-08-19T05:21:29;24.20;53.90
44982;DHT22;30716;41.740;-70.400;2022-08-19T05:24:14;24.10;53.80
44982;DHT22;30716;41.740;-70.400;2022-08-19T05:26:42;24.20;53.90
44982;DHT22;30716;41.740;-70.400;2022-08-19T05:29:13;24.20;53.80
44982;DHT22;30716;41.740;-70.400;2022-08-19T05:31:40;24.20;53.80
44982;DHT22;30716;41.740;-70.400;2022-08-19T05:34:07;24.20;53.70
44982;DHT22;30716;41.740;-70.400;2022-08-19T05:36:37;24.20;53.80
44982;DHT22;30716;41.740;-70.400;2022-08-19T05:39:09;24.30;53.90
44982;DHT22;30716;41.740;-70.400;2022-08-19T05:41:35;24.20;53.70
44982;DHT22;30716;41.740;-70.400;2022-08-19T05:44:04;24.30;53.80
44982;DHT22;30716;41.740;-70.400;2022-08-19T05:46:36;24.30;53.90
44982;DHT22;30716;41.740;-70.400;2022-08-19T05:49:05;24.30;53.90
44982;DHT22;30716;41.740;-70.400;2022-08-19T05:51:33;24.30;54.10
44982;DHT22;30716;41.740;-70.400;2022-08-19T05:54:00;24.30;54.20
44982;DHT22;30716;41.740;-70.400;2022-08-19T05:56:27;24.30;53.90
44982;DHT22;30716;41.740;-70.400;2022-08-19T05:58:56;24.30;53.70
44982;DHT22;30716;41.740;-70.400;2022-08-19T06:01:25;24.20;53.70
44982;DHT22;30716;41.740;-70.400;2022-08-19T06:03:52;24.30;53.80
44982;DHT22;30716;41.740;-70.400;2022-08-19T06:06:19;24.20;53.70
44982;DHT22;30716;41.740;-70.400;2022-08-19T06:08:46;24.20;53.70
44982;DHT22;30716;41.740;-70.400;2022-08-19T06:11:28;24.20;53.80
44982;DHT22;30716;41.740;-70.400;2022-08-19T06:14:01;24.30;54.00
44982;DHT22;30716;41.740;-70.400;2022-08-19T06:16:29;24.20;53.90
44982;DHT22;30716;41.740;-70.400;2022-08-19T06:19:02;24.20;53.90
44982;DHT22;30716;41.740;-70.400;2022-08-19T06:21:30;24.30;53.90
44982;DHT22;30716;41.740;-70.400;2022-08-19T06:23:57;24.20;53.70
44982;DHT22;30716;41.740;-70.400;2022-08-19T06:26:23;24.20;53.60
44982;DHT22;30716;41.740;-70.400;2022-08-19T06:28:50;24.20;53.50
44982;DHT22;30716;41.740;-70.400;2022-08-19T06:31:19;24.20;53.60
44982;DHT22;30716;41.740;-70.400;2022-08-19T06:33:47;24.20;53.60
44982;DHT22;30716;41.740;-70.400;2022-08-19T06:36:26;24.20;53.70
44982;DHT22;30716;41.740;-70.400;2022-08-19T06:38:57;24.20;54.00
44982;DHT22;30716;41.740;-70.400;2022-08-19T06:41:25;24.20;54.00
44982;DHT22;30716;41.740;-70.400;2022-08-19T06:43:52;24.20;54.00
44982;DHT22;30716;41.740;-70.400;2022-08-19T06:46:18;24.20;54.10
44982;DHT22;30716;41.740;-70.400;2022-08-19T06:48:46;24.20;54.00
44982;DHT22;30716;41.740;-70.400;2022-08-19T06:51:17;24.20;54.00
44982;DHT22;30716;41.740;-70.400;2022-08-19T06:53:48;24.20;54.00
44982;DHT22;30716;41.740;-70.400;2022-08-19T06:56:18;24.20;54.10
44982;DHT22;30716;41.740;-70.400;2022-08-19T06:58:45;24.20;54.00
44982;DHT22;30716;41.740;-70.400;2022-08-19T07:01:12;24.20;54.00
44982;DHT22;30716;41.740;-70.400;2022-08-19T07:03:39;24.30;54.10
44982;DHT22;30716;41.740;-70.400;2022-08-19T07:06:09;24.20;54.00
44982;DHT22;30716;41.740;-70.400;2022-08-19T07:08:36;24.20;54.00
44982;DHT22;30716;41.740;-70.400;2022-08-19T07:11:06;24.30;54.20
44982;DHT22;30716;41.740;-70.400;2022-08-19T07:13:33;24.20;54.10
44982;DHT22;30716;41.740;-70.400;2022-08-19T07:16:10;24.20;54.10
44982;DHT22;30716;41.740;-70.400;2022-08-19T07:18:38;24.20;54.10
44982;DHT22;30716;41.740;-70.400;2022-08-19T07:21:10;24.20;54.20
44982;DHT22;30716;41.740;-70.400;2022-08-19T07:23:36;24.20;54.20
44982;DHT22;30716;41.740;-70.400;2022-08-19T07:26:08;24.20;54.30
44982;DHT22;30716;41.740;-70.400;2022-08-19T07:28:35;24.30;54.40
44982;DHT22;30716;41.740;-70.400;2022-08-19T07:31:07;24.30;54.30
44982;DHT22;30716;41.740;-70.400;2022-08-19T07:33:34;24.20;54.30
44982;DHT22;30716;41.740;-70.400;2022-08-19T07:36:07;24.30;54.40
44982;DHT22;30716;41.740;-70.400;2022-08-19T07:38:34;24.30;54.60
44982;DHT22;30716;41.740;-70.400;2022-08-19T07:41:01;24.30;54.50
44982;DHT22;30716;41.740;-70.400;2022-08-19T07:43:27;24.30;54.50
44982;DHT22;30716;41.740;-70.400;2022-08-19T07:45:54;24.30;54.50
44982;DHT22;30716;41.740;-70.400;2022-08-19T07:48:24;24.30;54.50
44982;DHT22;30716;41.740;-70.400;2022-08-19T07:50:54;24.30;54.50
44982;DHT22;30716;41.740;-70.400;2022-08-19T07:53:21;24.30;54.50
44982;DHT22;30716;41.740;-70.400;2022-08-19T07:55:48;24.30;54.50
44982;DHT22;30716;41.740;-70.400;2022-08-19T07:58:19;24.30;54.50
44982;DHT22;30716;41.740;-70.400;2022-08-19T08:00:47;24.30;54.50
44982;DHT22;30716;41.740;-70.400;2022-08-19T08:03:15;24.30;54.50
44982;DHT22;30716;41.740;-70.400;2022-08-19T08:05:42;24.30;54.50
44982;DHT22;30716;41.740;-70.400;2022-08-19T08:08:27;24.30;54.50
44982;DHT22;30716;41.740;-70.400;2022-08-19T08:11:05;24.30;54.50
44982;DHT22;30716;41.740;-70.400;2022-08-19T08:13:31;24.30;54.50
44982;DHT22;30716;41.740;-70.400;2022-08-19T08:16:01;24.30;54.50
44982;DHT22;30716;41.740;-70.400;2022-08-19T08:18:28;24.30;54.60
44982;DHT22;30716;41.740;-70.400;2022-08-19T08:20:57;24.30;54.60
44982;DHT22;30716;41.740;-70.400;2022-08-19T08:23:24;24.30;54.60
44982;DHT22;30716;41.740;-70.400;2022-08-19T08:25:53;24.30;54.50
44982;DHT22;30716;41.740;-70.400;2022-08-19T08:28:20;24.40;54.60
44982;DHT22;30716;41.740;-70.400;2022-08-19T08:30:48;24.30;54.70
44982;DHT22;30716;41.740;-70.400;2022-08-19T08:33:20;24.40;54.60
44982;DHT22;30716;41.740;-70.400;2022-08-19T08:35:47;24.30;54.50
44982;DHT22;30716;41.740;-70.400;2022-08-19T08:38:14;24.30;54.60
44982;DHT22;30716;41.740;-70.400;2022-08-19T08:40:50;24.30;54.70
44982;DHT22;30716;41.740;-70.400;2022-08-19T08:43:29;24.30;54.70
44982;DHT22;30716;41.740;-70.400;2022-08-19T08:46:05;24.40;54.70
44982;DHT22;30716;41.740;-70.400;2022-08-19T08:51:10;24.40;54.80
44982;DHT22;30716;41.740;-70.400;2022-08-19T08:53:38;24.40;54.80
44982;DHT22;30716;41.740;-70.400;2022-08-19T08:56:06;24.30;54.70
44982;DHT22;30716;41.740;-70.400;2022-08-19T08:58:55;24.40;54.80
44982;DHT22;30716;41.740;-70.400;2022-08-19T09:01:23;24.40;54.80
44982;DHT22;30716;41.740;-70.400;2022-08-19T09:03:49;24.40;54.80
44982;DHT22;30716;41.740;-70.400;2022-08-19T09:16:57;24.40;54.80
44982;DHT22;30716;41.740;-70.400;2022-08-19T09:19:23;24.40;54.90
44982;DHT22;30716;41.740;-70.400;2022-08-19T09:21:50;24.40;54.80
44982;DHT22;30716;41.740;-70.400;2022-08-19T09:24:16;24.40;54.90
44982;DHT22;30716;41.740;-70.400;2022-08-19T09:26:42;24.40;54.90
44982;DHT22;30716;41.740;-70.400;2022-08-19T09:29:10;24.40;54.90
44982;DHT22;30716;41.740;-70.400;2022-08-19T09:31:36;24.40;54.90
44982;DHT22;30716;41.740;-70.400;2022-08-19T09:34:02;24.40;54.90
44982;DHT22;30716;41.740;-70.400;2022-08-19T09:36:32;24.40;54.70
44982;DHT22;30716;41.740;-70.400;2022-08-19T09:38:59;24.30;54.40
44982;DHT22;30716;41.740;-70.400;2022-08-19T09:41:26;24.30;54.50
44982;DHT22;30716;41.740;-70.400;2022-08-19T09:43:54;24.30;54.50
44982;DHT22;30716;41.740;-70.400;2022-08-19T09:46:27;24.30;54.40
44982;DHT22;30716;41.740;-70.400;2022-08-19T09:48:54;24.30;54.60
44982;DHT22;30716;41.740;-70.400;2022-08-19T09:51:25;24.20;55.40
44982;DHT22;30716;41.740;-70.400;2022-08-19T09:53:55;24.20;54.70
44982;DHT22;30716;41.740;-70.400;2022-08-19T09:56:24;24.30;54.80
44982;DHT22;30716;41.740;-70.400;2022-08-19T09:58:50;24.30;54.80
44982;DHT22;30716;41.740;-70.400;2022-08-19T10:01:22;24.30;54.80
44982;DHT22;30716;41.740;-70.400;2022-08-19T10:03:54;24.30;54.80
44982;DHT22;30716;41.740;-70.400;2022-08-19T10:06:49;24.30;54.80
44982;DHT22;30716;41.740;-70.400;2022-08-19T10:09:17;24.30;54.90
44982;DHT22;30716;41.740;-70.400;2022-08-19T10:11:44;24.30;55.00
44982;DHT22;30716;41.740;-70.400;2022-08-19T10:14:15;24.30;54.90
44982;DHT22;30716;41.740;-70.400;2022-08-19T10:16:42;24.30;54.90
44982;DHT22;30716;41.740;-70.400;2022-08-19T10:19:09;24.30;54.70
44982;DHT22;30716;41.740;-70.400;2022-08-19T10:21:35;24.30;54.60
44982;DHT22;30716;41.740;-70.400;2022-08-19T10:24:04;24.30;54.40
44982;DHT22;30716;41.740;-70.400;2022-08-19T10:26:36;24.30;54.50
44982;DHT22;30716;41.740;-70.400;2022-08-19T10:29:04;24.30;54.30
44982;DHT22;30716;41.740;-70.400;2022-08-19T10:31:32;24.30;54.50
44982;DHT22;30716;41.740;-70.400;2022-08-19T10:33:59;24.30;54.30
44982;DHT22;30716;41.740;-70.400;2022-08-19T10:36:29;24.20;54.30
44982;DHT22;30716;41.740;-70.400;2022-08-19T10:38:58;24.20;54.30
44982;DHT22;30716;41.740;-70.400;2022-08-19T10:41:28;24.20;54.40
44982;DHT22;30716;41.740;-70.400;2022-08-19T10:43:59;24.20;54.30
44982;DHT22;30716;41.740;-70.400;2022-08-19T10:46:27;24.20;54.30
44982;DHT22;30716;41.740;-70.400;2022-08-19T10:48:54;24.20;54.30
44982;DHT22;30716;41.740;-70.400;2022-08-19T10:51:21;24.20;54.40
44982;DHT22;30716;41.740;-70.400;2022-08-19T10:54:06;24.20;54.00
44982;DHT22;30716;41.740;-70.400;2022-08-19T10:56:32;24.20;54.00
44982;DHT22;30716;41.740;-70.400;2022-08-19T10:59:26;24.10;53.90
44982;DHT22;30716;41.740;-70.400;2022-08-19T11:01:58;24.10;54.00
44982;DHT22;30716;41.740;-70.400;2022-08-19T11:04:25;24.10;53.80
44982;DHT22;30716;41.740;-70.400;2022-08-19T11:06:51;24.10;53.90
44982;DHT22;30716;41.740;-70.400;2022-08-19T11:09:22;24.10;54.00
44982;DHT22;30716;41.740;-70.400;2022-08-19T11:11:52;24.10;53.80
44982;DHT22;30716;41.740;-70.400;2022-08-19T11:14:20;24.10;53.80
44982;DHT22;30716;41.740;-70.400;2022-08-19T11:16:48;24.10;53.70
44982;DHT22;30716;41.740;-70.400;2022-08-19T11:19:15;24.10;53.60
44982;DHT22;30716;41.740;-70.400;2022-08-19T11:21:47;24.20;53.60
44982;DHT22;30716;41.740;-70.400;2022-08-19T11:24:16;24.10;53.50
44982;DHT22;30716;41.740;-70.400;2022-08-19T11:26:43;24.10;53.50
44982;DHT22;30716;41.740;-70.400;2022-08-19T11:29:12;24.10;53.50
44982;DHT22;30716;41.740;-70.400;2022-08-19T11:31:41;24.10;53.50
44982;DHT22;30716;41.740;-70.400;2022-08-19T11:34:10;24.00;53.30
44982;DHT22;30716;41.740;-70.400;2022-08-19T11:36:39;24.00;53.30
44982;DHT22;30716;41.740;-70.400;2022-08-19T11:39:08;24.00;53.40
44982;DHT22;30716;41.740;-70.400;2022-08-19T11:41:35;23.90;53.10
44982;DHT22;30716;41.740;-70.400;2022-08-19T11:44:02;23.90;53.10
44982;DHT22;30716;41.740;-70.400;2022-08-19T11:46:29;23.90;53.10
44982;DHT22;30716;41.740;-70.400;2022-08-19T11:48:59;23.90;53.10
44982;DHT22;30716;41.740;-70.400;2022-08-19T11:51:27;23.90;52.80
44982;DHT22;30716;41.740;-70.400;2022-08-19T11:53:55;23.90;52.60
44982;DHT22;30716;41.740;-70.400;2022-08-19T11:56:22;23.80;52.60
44982;DHT22;30716;41.740;-70.400;2022-08-19T11:58:50;23.70;52.30
44982;DHT22;30716;41.740;-70.400;2022-08-19T12:01:19;23.70;52.50
44982;DHT22;30716;41.740;-70.400;2022-08-19T12:03:50;23.80;52.90
44982;DHT22;30716;41.740;-70.400;2022-08-19T12:06:22;23.80;52.80
44982;DHT22;30716;41.740;-70.400;2022-08-19T12:08:53;23.80;52.80
44982;DHT22;30716;41.740;-70.400;2022-08-19T12:11:19;23.80;52.80
44982;DHT22;30716;41.740;-70.400;2022-08-19T12:13:46;23.80;52.90
44982;DHT22;30716;41.740;-70.400;2022-08-19T12:16:20;23.80;52.80
44982;DHT22;30716;41.740;-70.400;2022-08-19T12:18:48;23.80;52.90
44982;DHT22;30716;41.740;-70.400;2022-08-19T12:21:21;23.80;52.90
44982;DHT22;30716;41.740;-70.400;2022-08-19T12:23:49;23.80;52.70
44982;DHT22;30716;41.740;-70.400;2022-08-19T12:26:16;23.80;52.60
44982;DHT22;30716;41.740;-70.400;2022-08-19T12:28:42;23.80;52.50
44982;DHT22;30716;41.740;-70.400;2022-08-19T12:31:09;23.80;52.60
44982;DHT22;30716;41.740;-70.400;2022-08-19T12:33:38;23.70;52.40
44982;DHT22;30716;41.740;-70.400;2022-08-19T12:36:06;23.70;52.30
44982;DHT22;30716;41.740;-70.400;2022-08-19T12:38:37;23.70;52.20
44982;DHT22;30716;41.740;-70.400;2022-08-19T12:41:04;23.70;52.10
44982;DHT22;30716;41.740;-70.400;2022-08-19T12:43:32;23.60;52.20
44982;DHT22;30716;41.740;-70.400;2022-08-19T12:45:58;23.60;52.40
44982;DHT22;30716;41.740;-70.400;2022-08-19T12:48:24;23.60;52.40
44982;DHT22;30716;41.740;-70.400;2022-08-19T12:50:50;23.60;52.50
44982;DHT22;30716;41.740;-70.400;2022-08-19T12:53:17;23.60;52.40
44982;DHT22;30716;41.740;-70.400;2022-08-19T12:55:43;23.60;52.20
44982;DHT22;30716;41.740;-70.400;2022-08-19T12:58:10;23.60;52.40
44982;DHT22;30716;41.740;-70.400;2022-08-19T13:00:36;23.60;52.30
44982;DHT22;30716;41.740;-70.400;2022-08-19T13:03:02;23.60;53.20
44982;DHT22;30716;41.740;-70.400;2022-08-19T13:05:31;23.50;52.00
44982;DHT22;30716;41.740;-70.400;2022-08-19T13:07:59;23.60;51.90
44982;DHT22;30716;41.740;-70.400;2022-08-19T13:10:34;23.60;51.90
44982;DHT22;30716;41.740;-70.400;2022-08-19T13:13:07;23.60;51.90
44982;DHT22;30716;41.740;-70.400;2022-08-19T13:15:39;23.60;51.80
44982;DHT22;30716;41.740;-70.400;2022-08-19T13:18:08;23.60;51.80
44982;DHT22;30716;41.740;-70.400;2022-08-19T13:20:37;23.60;52.60
44982;DHT22;30716;41.740;-70.400;2022-08-19T13:23:04;23.50;51.80
44982;DHT22;30716;41.740;-70.400;2022-08-19T13:25:30;23.50;51.70
44982;DHT22;30716;41.740;-70.400;2022-08-19T13:27:56;23.50;51.70
44982;DHT22;30716;41.740;-70.400;2022-08-19T13:30:23;23.50;51.70
44982;DHT22;30716;41.740;-70.400;2022-08-19T13:33:08;23.50;51.70
44982;DHT22;30716;41.740;-70.400;2022-08-19T13:35:57;23.50;51.90
44982;DHT22;30716;41.740;-70.400;2022-08-19T13:38:24;23.50;52.00
44982;DHT22;30716;41.740;-70.400;2022-08-19T13:40:52;23.50;52.10
44982;DHT22;30716;41.740;-70.400;2022-08-19T13:43:21;23.50;52.10
44982;DHT22;30716;41.740;-70.400;2022-08-19T13:45:53;23.50;52.20
44982;DHT22;30716;41.740;-70.400;2022-08-19T13:48:21;23.50;52.00
44982;DHT22;30716;41.740;-70.400;2022-08-19T13:50:47;23.50;52.00
44982;DHT22;30716;41.740;-70.400;2022-08-19T13:53:15;23.50;52.00
44982;DHT22;30716;41.740;-70.400;2022-08-19T13:55:43;23.50;52.00
44982;DHT22;30716;41.740;-70.400;2022-08-19T13:58:11;23.50;52.10
44982;DHT22;30716;41.740;-70.400;2022-08-19T14:00:43;23.50;52.10
44982;DHT22;30716;41.740;-70.400;2022-08-19T14:03:10;23.50;52.10
44982;DHT22;30716;41.740;-70.400;2022-08-19T14:05:37;23.50;51.70
44982;DHT22;30716;41.740;-70.400;2022-08-19T14:08:04;23.50;51.60
44982;DHT22;30716;41.740;-70.400;2022-08-19T14:10:30;23.50;51.90
44982;DHT22;30716;41.740;-70.400;2022-08-19T14:12:59;23.50;51.90
44982;DHT22;30716;41.740;-70.400;2022-08-19T14:15:26;23.60;52.10
44982;DHT22;30716;41.740;-70.400;2022-08-19T14:17:53;23.60;52.10
44982;DHT22;30716;41.740;-70.400;2022-08-19T14:20:20;23.60;52.00
44982;DHT22;30716;41.740;-70.400;2022-08-19T14:22:47;23.60;52.20
44982;DHT22;30716;41.740;-70.400;2022-08-19T14:25:18;23.60;52.20
44982;DHT22;30716;41.740;-70.400;2022-08-19T14:27:46;23.60;52.30
44982;DHT22;30716;41.740;-70.400;2022-08-19T14:30:15;23.60;52.20
44982;DHT22;30716;41.740;-70.400;2022-08-19T14:32:41;23.60;52.00
44982;DHT22;30716;41.740;-70.400;2022-08-19T14:35:10;23.50;51.60
44982;DHT22;30716;41.740;-70.400;2022-08-19T14:37:38;23.60;51.50
44982;DHT22;30716;41.740;-70.400;2022-08-19T14:40:05;23.60;52.20
44982;DHT22;30716;41.740;-70.400;2022-08-19T14:42:36;23.50;51.40
44982;DHT22;30716;41.740;-70.400;2022-08-19T14:45:03;23.50;51.40
44982;DHT22;30716;41.740;-70.400;2022-08-19T14:47:31;23.50;51.40
44982;DHT22;30716;41.740;-70.400;2022-08-19T14:49:57;23.50;51.40
44982;DHT22;30716;41.740;-70.400;2022-08-19T14:52:23;23.50;51.40
44982;DHT22;30716;41.740;-70.400;2022-08-19T14:54:50;23.50;51.50
44982;DHT22;30716;41.740;-70.400;2022-08-19T14:57:17;23.50;51.30
44982;DHT22;30716;41.740;-70.400;2022-08-19T14:59:43;23.50;52.20
44982;DHT22;30716;41.740;-70.400;2022-08-19T15:02:10;23.40;51.50
44982;DHT22;30716;41.740;-70.400;2022-08-19T15:04:37;23.50;51.70
44982;DHT22;30716;41.740;-70.400;2022-08-19T15:07:05;23.50;51.70
44982;DHT22;30716;41.740;-70.400;2022-08-19T15:09:32;23.50;51.70
44982;DHT22;30716;41.740;-70.400;2022-08-19T15:11:59;23.50;51.70
44982;DHT22;30716;41.740;-70.400;2022-08-19T15:14:26;23.50;51.80
44982;DHT22;30716;41.740;-70.400;2022-08-19T15:16:53;23.50;52.50
44982;DHT22;30716;41.740;-70.400;2022-08-19T15:19:20;23.50;51.80
44982;DHT22;30716;41.740;-70.400;2022-08-19T15:21:46;23.50;51.70
44982;DHT22;30716;41.740;-70.400;2022-08-19T15:24:12;23.50;51.70
44982;DHT22;30716;41.740;-70.400;2022-08-19T15:26:38;23.50;52.30